createdAt,value
2018-07-25T00:02:58.938Z,23.80
2018-07-25T00:07:02.652Z,23.70
2018-07-25T00:11:06.356Z,23.70
2018-07-25T00:15:10.166Z,23.60
2018-07-25T00:19:13.887Z,23.50
2018-07-25T00:23:17.627Z,23.50
2018-07-25T00:27:21.321Z,23.40
2018-07-25T00:31:25.109Z,23.30
2018-07-25T00:35:28.820Z,23.30
2018-07-25T00:39:32.546Z,23.20
2018-07-25T00:43:36.260Z,23.10
2018-07-25T00:47:40.025Z,23.10
2018-07-25T00:51:43.752Z,23.00
2018-07-25T00:55:47.511Z,22.90
2018-07-25T00:59:51.277Z,22.90
2018-07-25T01:03:54.996Z,22.80
2018-07-25T01:07:58.820Z,22.80
2018-07-25T01:12:02.587Z,22.80
2018-07-25T01:16:06.516Z,22.70
2018-07-25T01:20:10.357Z,22.60
2018-07-25T01:24:14.107Z,22.60
2018-07-25T01:28:17.872Z,22.50
2018-07-25T01:32:21.637Z,22.50
2018-07-25T01:36:25.309Z,22.50
2018-07-25T01:40:29.064Z,22.40
2018-07-25T01:44:32.767Z,22.30
2018-07-25T01:48:36.515Z,22.30
2018-07-25T01:52:40.293Z,22.20
2018-07-25T01:56:43.979Z,22.20
2018-07-25T02:00:48.515Z,22.20
2018-07-25T02:04:52.220Z,22.10
2018-07-25T02:08:56.879Z,22.00
2018-07-25T02:13:00.616Z,22.00
2018-07-25T02:17:04.367Z,22.00
2018-07-25T02:21:08.081Z,21.90
2018-07-25T02:25:11.828Z,21.90
2018-07-25T02:29:15.555Z,21.80
2018-07-25T02:33:23.487Z,21.80
2018-07-25T02:37:27.180Z,21.70
2018-07-25T02:41:30.895Z,21.70
2018-07-25T02:45:39.807Z,21.70
2018-07-25T02:49:43.547Z,21.70
2018-07-25T02:53:47.241Z,21.60
2018-07-25T02:57:51.056Z,21.60
2018-07-25T03:01:54.830Z,21.60
2018-07-25T03:05:58.553Z,21.50
2018-07-25T03:10:02.261Z,21.50
2018-07-25T03:14:06.056Z,21.50
2018-07-25T03:18:09.785Z,21.50
2018-07-25T03:22:13.481Z,21.50
2018-07-25T03:26:17.257Z,21.40
2018-07-25T03:30:20.953Z,21.40
2018-07-25T03:34:24.680Z,21.40
2018-07-25T03:38:29.123Z,21.30
2018-07-25T03:42:32.842Z,21.30
2018-07-25T03:46:36.652Z,21.30
2018-07-25T03:50:40.337Z,21.30
2018-07-25T03:54:44.081Z,21.20
2018-07-25T03:58:47.809Z,21.30
2018-07-25T04:02:51.549Z,21.20
2018-07-25T04:06:55.487Z,21.20
2018-07-25T04:19:06.086Z,21.20
2018-07-25T04:23:09.788Z,21.20
2018-07-25T04:27:13.562Z,21.20
2018-07-25T04:31:17.377Z,21.30
2018-07-25T04:35:21.102Z,21.30
2018-07-25T04:39:24.808Z,21.30
2018-07-25T04:43:28.469Z,21.50
2018-07-25T04:47:32.195Z,21.50
2018-07-25T04:51:35.904Z,21.60
2018-07-25T04:55:39.615Z,21.60
2018-07-25T04:59:43.686Z,21.80
2018-07-25T05:03:47.390Z,21.80
2018-07-25T05:07:51.150Z,21.90
2018-07-25T05:11:54.902Z,22.00
2018-07-25T05:15:58.736Z,22.10
2018-07-25T05:20:02.529Z,22.20
2018-07-25T05:24:06.368Z,22.30
2018-07-25T05:28:10.111Z,22.40
2018-07-25T05:32:13.847Z,22.50
2018-07-25T05:36:17.608Z,22.70
2018-07-25T05:40:21.339Z,22.80
2018-07-25T05:44:25.069Z,22.90
2018-07-25T05:48:28.800Z,23.00
2018-07-25T05:52:32.515Z,23.10
2018-07-25T05:56:36.258Z,23.20
2018-07-25T06:00:40.017Z,23.40
2018-07-25T06:04:43.699Z,23.50
2018-07-25T06:08:47.446Z,23.60
2018-07-25T06:12:51.227Z,23.80
2018-07-25T06:16:54.968Z,23.90
2018-07-25T06:20:58.752Z,24.20
2018-07-25T06:25:02.463Z,24.30
2018-07-25T06:29:06.240Z,24.50
2018-07-25T06:37:18.889Z,24.90
2018-07-25T06:41:22.616Z,25.30
2018-07-25T06:45:26.403Z,26.00
2018-07-25T06:49:30.185Z,27.40
2018-07-25T06:53:33.910Z,29.00
2018-07-25T06:57:37.678Z,30.50
2018-07-25T07:01:41.436Z,31.90
2018-07-25T07:05:45.165Z,33.10
2018-07-25T07:09:48.847Z,34.10
2018-07-25T07:13:52.551Z,35.00
2018-07-25T07:17:56.294Z,35.80
2018-07-25T07:22:00.025Z,36.50
2018-07-25T07:26:03.709Z,37.10
2018-07-25T07:30:07.857Z,37.70
2018-07-25T07:34:11.580Z,38.10
2018-07-25T07:38:15.359Z,38.50
2018-07-25T07:42:19.099Z,38.90
2018-07-25T07:46:22.911Z,39.20
2018-07-25T07:50:26.596Z,39.50
2018-07-25T07:54:30.328Z,39.80
2018-07-25T07:58:34.060Z,40.00
2018-07-25T08:02:37.907Z,40.20
2018-07-25T08:06:41.664Z,40.30
2018-07-25T08:10:45.689Z,40.40
2018-07-25T08:14:49.432Z,40.50
2018-07-25T08:18:53.192Z,40.70
2018-07-25T08:22:56.923Z,40.80
2018-07-25T08:27:00.676Z,41.00
2018-07-25T08:31:04.440Z,41.20
2018-07-25T08:39:12.005Z,41.50
2018-07-25T08:43:15.736Z,41.70
2018-07-25T08:47:19.614Z,41.70
2018-07-25T08:51:23.302Z,41.90
2018-07-25T08:55:27.055Z,41.90
2018-07-25T08:59:30.809Z,41.90
2018-07-25T09:03:34.517Z,41.80
2018-07-25T09:07:38.249Z,41.80
2018-07-25T09:11:41.931Z,41.70
2018-07-25T09:15:45.696Z,41.50
2018-07-25T09:19:49.425Z,41.10
2018-07-25T09:23:53.161Z,40.30
2018-07-25T09:31:55.295Z,37.80
2018-07-25T09:35:59.025Z,38.10
2018-07-25T09:40:02.740Z,37.40
2018-07-25T09:44:06.591Z,36.90
2018-07-25T09:48:10.375Z,36.50
2018-07-25T09:52:14.198Z,36.20
2018-07-25T10:00:26.624Z,35.70
2018-07-25T10:04:30.352Z,35.50
2018-07-25T10:08:34.160Z,35.30
2018-07-25T10:12:37.840Z,35.20
2018-07-25T10:16:41.570Z,35.00
2018-07-25T10:20:45.352Z,34.80
2018-07-25T10:24:49.246Z,34.60
2018-07-25T10:28:52.984Z,34.50
2018-07-25T10:32:56.827Z,34.40
2018-07-25T10:37:00.585Z,34.40
2018-07-25T10:41:04.304Z,34.30
2018-07-25T10:45:09.612Z,34.40
2018-07-25T10:49:13.331Z,34.30
2018-07-25T10:53:17.058Z,34.30
2018-07-25T10:57:20.822Z,34.30
2018-07-25T11:01:24.585Z,34.30
2018-07-25T11:05:29.517Z,34.30
2018-07-25T11:09:33.326Z,34.30
2018-07-25T11:13:37.005Z,34.30
2018-07-25T11:17:40.739Z,34.30
2018-07-25T11:21:44.457Z,34.30
2018-07-25T11:25:48.223Z,34.30
2018-07-25T11:29:52.004Z,34.20
2018-07-25T11:33:55.741Z,34.10
2018-07-25T11:37:59.424Z,34.10
2018-07-25T11:42:03.236Z,34.10
2018-07-25T11:46:06.941Z,34.20
2018-07-25T11:50:10.816Z,34.20
2018-07-25T11:54:14.469Z,34.30
2018-07-25T11:58:18.209Z,34.40
2018-07-25T12:02:22.021Z,34.60
2018-07-25T12:06:25.845Z,34.80
2018-07-25T12:10:29.580Z,35.00
2018-07-25T12:14:33.356Z,35.20
2018-07-25T12:18:37.128Z,35.30
2018-07-25T12:22:40.913Z,35.50
2018-07-25T12:26:45.067Z,35.70
2018-07-25T12:30:48.788Z,35.80
2018-07-25T12:34:52.556Z,35.90
2018-07-25T12:38:56.334Z,35.90
2018-07-25T12:43:00.221Z,35.90
2018-07-25T12:47:04.042Z,35.90
2018-07-25T12:51:08.158Z,35.80
2018-07-25T12:55:11.937Z,35.70
2018-07-25T12:59:15.693Z,35.60
2018-07-25T13:03:19.514Z,35.60
2018-07-25T13:07:23.284Z,35.50
2018-07-25T13:11:27.088Z,35.50
2018-07-25T13:15:30.941Z,35.50
2018-07-25T13:19:34.698Z,35.40
2018-07-25T13:23:39.025Z,35.40
2018-07-25T13:27:42.808Z,35.40
2018-07-25T13:31:46.628Z,35.30
2018-07-25T13:35:50.367Z,35.30
2018-07-25T13:39:54.069Z,35.30
2018-07-25T13:43:57.856Z,35.40
2018-07-25T13:48:01.653Z,35.50
2018-07-25T13:52:05.591Z,35.60
2018-07-25T13:56:10.584Z,35.60
2018-07-25T14:00:14.338Z,35.60
2018-07-25T14:04:18.081Z,35.70
2018-07-25T14:08:21.880Z,35.70
2018-07-25T14:12:25.680Z,35.80
2018-07-25T14:16:29.464Z,35.70
2018-07-25T14:20:33.319Z,35.70
2018-07-25T14:24:37.275Z,35.60
2018-07-25T14:28:41.218Z,35.60
2018-07-25T14:32:45.122Z,35.60
2018-07-25T14:36:49.090Z,35.50
2018-07-25T14:40:53.046Z,35.50
2018-07-25T14:44:56.969Z,35.50
2018-07-25T14:49:00.763Z,35.50
2018-07-25T14:53:04.644Z,35.60
2018-07-25T14:57:08.505Z,35.70
2018-07-25T15:01:12.292Z,35.80
2018-07-25T15:05:16.100Z,35.80
2018-07-25T15:09:19.918Z,35.80
2018-07-25T15:13:23.833Z,35.90
2018-07-25T15:17:27.781Z,36.10
2018-07-25T15:21:31.561Z,36.30
2018-07-25T15:25:35.366Z,36.30
2018-07-25T15:29:39.156Z,36.30
2018-07-25T15:33:42.957Z,36.30
2018-07-25T15:37:46.752Z,36.30
2018-07-25T15:41:51.307Z,36.30
2018-07-25T15:45:55.084Z,36.30
2018-07-25T15:49:58.872Z,36.40
2018-07-25T15:54:03.140Z,36.40
2018-07-25T15:58:07.053Z,36.50
2018-07-25T16:02:10.972Z,36.50
2018-07-25T16:06:14.693Z,36.50
2018-07-25T16:10:18.515Z,36.50
2018-07-25T16:14:22.292Z,36.50
2018-07-25T16:18:26.086Z,36.40
2018-07-25T16:22:29.949Z,36.30
2018-07-25T16:26:33.681Z,36.10
2018-07-25T16:30:37.529Z,35.70
2018-07-25T16:38:44.648Z,35.20
2018-07-25T16:42:48.515Z,35.00
2018-07-25T16:46:52.229Z,34.70
2018-07-25T16:50:56.029Z,34.60
2018-07-25T16:54:59.795Z,34.30
2018-07-25T16:59:03.709Z,34.10
2018-07-25T17:03:07.600Z,33.90
2018-07-25T17:07:11.500Z,33.70
2018-07-25T17:11:15.256Z,33.60
2018-07-25T17:15:19.035Z,33.40
2018-07-25T17:19:22.841Z,33.20
2018-07-25T17:23:27.005Z,33.10
2018-07-25T17:27:30.773Z,32.90
2018-07-25T17:31:34.485Z,32.80
2018-07-25T17:35:38.248Z,32.60
2018-07-25T17:39:42.015Z,32.50
2018-07-25T17:43:45.791Z,32.30
2018-07-25T17:47:49.550Z,32.20
2018-07-25T17:51:53.326Z,32.10
2018-07-25T17:55:57.128Z,31.90
2018-07-25T18:00:00.892Z,31.80
2018-07-25T18:04:04.832Z,31.70
2018-07-25T18:08:08.561Z,31.60
2018-07-25T18:16:35.153Z,31.40
2018-07-25T18:20:38.935Z,31.30
2018-07-25T18:24:42.731Z,31.20
2018-07-25T18:28:46.462Z,31.20
2018-07-25T18:32:50.281Z,31.10
2018-07-25T18:36:54.065Z,31.00
2018-07-25T18:40:57.865Z,30.90
2018-07-25T18:45:01.653Z,30.80
2018-07-25T18:49:05.474Z,30.70
2018-07-25T18:53:09.264Z,30.60
2018-07-25T18:57:13.002Z,30.60
2018-07-25T19:01:16.794Z,30.50
2018-07-25T19:05:24.709Z,30.40
2018-07-25T19:09:28.383Z,30.40
2018-07-25T19:13:35.687Z,30.30
2018-07-25T19:21:42.800Z,30.10
2018-07-25T19:25:46.488Z,30.00
2018-07-25T19:29:50.141Z,30.00
2018-07-25T19:33:54.200Z,29.90
2018-07-25T19:37:57.930Z,29.80
2018-07-25T19:42:01.665Z,29.80
2018-07-25T19:46:05.543Z,29.70
2018-07-25T19:50:09.233Z,29.60
2018-07-25T19:54:12.932Z,29.50
2018-07-25T19:58:16.661Z,29.40
2018-07-25T20:02:20.404Z,29.40
2018-07-25T20:06:24.081Z,29.30
2018-07-25T20:10:27.780Z,29.20
2018-07-25T20:14:36.760Z,29.20
2018-07-25T20:18:40.468Z,29.10
2018-07-25T20:22:44.182Z,29.00
2018-07-25T20:26:47.900Z,29.00
2018-07-25T20:30:51.689Z,28.90
2018-07-25T20:34:55.402Z,28.80
2018-07-25T20:38:59.119Z,28.70
2018-07-25T20:43:02.842Z,28.60
2018-07-25T20:47:06.750Z,28.60
2018-07-25T20:51:10.665Z,28.50
2018-07-25T20:55:14.414Z,28.40
2018-07-25T20:59:18.162Z,28.30
2018-07-25T21:03:21.841Z,28.30
2018-07-25T21:07:25.569Z,28.20
2018-07-25T21:11:30.055Z,28.10
2018-07-25T21:15:33.771Z,28.10
2018-07-25T21:19:37.464Z,28.00
2018-07-25T21:23:41.173Z,27.90
2018-07-25T21:31:48.538Z,27.80
2018-07-25T21:35:52.286Z,27.80
2018-07-25T21:39:56.013Z,27.70
2018-07-25T21:43:59.748Z,27.60
2018-07-25T21:48:03.502Z,27.60
2018-07-25T21:52:07.273Z,27.50
2018-07-25T21:56:10.939Z,27.50
2018-07-25T22:00:15.937Z,27.50
2018-07-25T22:04:19.631Z,27.40
2018-07-25T22:08:23.343Z,27.30
2018-07-25T22:12:27.060Z,27.20
2018-07-25T22:16:30.811Z,27.20
2018-07-25T22:20:34.544Z,27.10
2018-07-25T22:24:38.280Z,27.10
2018-07-25T22:28:42.014Z,27.00
2018-07-25T22:32:45.855Z,26.90
2018-07-25T22:36:49.634Z,26.90
2018-07-25T22:40:53.366Z,26.90
2018-07-25T22:49:00.647Z,26.80
2018-07-25T22:53:04.389Z,26.70
2018-07-25T22:57:08.122Z,26.70
2018-07-25T23:01:11.861Z,26.70
2018-07-25T23:05:15.712Z,26.60
2018-07-25T23:09:19.438Z,26.60
2018-07-25T23:13:23.302Z,26.50
2018-07-25T23:17:26.980Z,26.50
2018-07-25T23:21:30.705Z,26.50
2018-07-25T23:25:34.412Z,26.40
2018-07-25T23:29:38.132Z,26.40
2018-07-25T23:33:41.865Z,26.40
2018-07-25T23:37:45.664Z,26.30
2018-07-25T23:41:49.395Z,26.30
2018-07-25T23:45:53.123Z,26.30
2018-07-25T23:49:56.899Z,26.20
2018-07-25T23:54:00.748Z,26.20
2018-07-25T23:58:04.459Z,26.20
